Airfield :
LOGIN :

Register | Disclaimer

   EN    FR    IT 

 










Legend :    VFR   Marginal VFR   IFR   Intensive IFR   Very Intensive IFR
Visi :
Ceiling :
>= 8 km
>= 3000ft
5 to 8 km
1000 to 3000 ft
1500m to 5 km
500 to 1000 ft
800 to 1500m
200 to 500 ft
< 800m
< 200 ft
Symbols :   Thunderstorms  Fog  Heavy snow  Heavy precipitations  Wind > 20 kt
SIGMETs :     Misc.  Thunderstorms  Icing  Turbulence  Mountain Waves  Volcanic Ashes







- Airport Elevation : 26 ft


ETNT - Wittmundhaven AB

CURRENT METAR :
  • 100751Z 30014KT 9999 SCT020CB SCT050 04/01 Q1013 BLU+BLU+ TEMPO GRN

EXPIRED METARs :
  • 100720Z 28013KT 9999 SCT020CB SCT050 04/01 Q1013 BLU+BLU+ TEMPO GRN
  • 100622Z 31019G35KT 9999 SCT020TCU SCT050 06/M01 Q1013 BLU+BLU+ TEMPO GRN
  • 100620Z 31016G33KT 9999 FEW025TCU SCT050 06/M01 Q1013 BLU+BLU+ TEMPO GRN
  • 100520Z 30012KT 9999 SCT025TCU SCT050 05/01 Q1012 BLU+BLU+ TEMPO GRN

TAF TAF ETNT
Valid from the 10 at 06:00 until the 10 at 15:00 UTC


100513Z 1006/1015 29015G25KT 9999 NSW SCT020 SCT040
TEMPO 1006/1015 32020G37KT 4000 SHRA SCT010 BKN015CB
PROB30 1012/1015 35025G42KT 2000 TSGS BKN010CB BY ETGL
No reported NOTAMs for that airfield.



MET'MAP, your aeronautical weather chart ! - Copyright ORBIFLY December 2007 - Disclaimer

ORBIFLY MET'MAP TEAM :

Programming & Development : Alexandra Zaïnal
Concept & Development : Baudouin d'Aumeries
Co-Development & Prog : Marc-Olivier Méhu
Technical & hardware support : Manuel Goepfert

Contact : metmap@orbifly.com




SOURCES & CREDITS :

   NOAA